Time;durP1;ratioP1;P1;durP2;ratioP2;P2;SDS_P1;SDS_P2;PMS_P1;PMS_P2;Temp;Humidity;BMP_temperature;BMP_pressure;BME280_temperature;BME280_humidity;BME280_pressure;Samples;Min_cycle;Max_cycle;Signal;HPM_P1;HPM_P2
2023/12/03 00:02:12;;;;;;;101.43;42.97;;;1.40;99.90;;;;;;5078397;28;20667;-79
2023/12/03 00:04:39;;;;;;;100.23;44.40;;;1.40;99.90;;;;;;5094296;28;20491;-79
2023/12/03 00:07:05;;;;;;;104.93;43.67;;;1.40;99.90;;;;;;5078486;28;20059;-79
2023/12/03 00:09:32;;;;;;;93.83;40.70;;;1.50;99.90;;;;;;5055525;28;20402;-84
2023/12/03 00:11:58;;;;;;;106.00;44.83;;;1.50;99.90;;;;;;5081868;28;20040;-78
2023/12/03 00:14:25;;;;;;;95.07;41.50;;;1.40;99.90;;;;;;5094899;28;20389;-84
2023/12/03 00:16:51;;;;;;;106.17;45.80;;;1.40;99.90;;;;;;5076870;28;20035;-80
2023/12/03 00:19:17;;;;;;;99.07;45.37;;;1.40;99.90;;;;;;5053124;28;20043;-82
2023/12/03 00:21:44;;;;;;;96.57;42.53;;;1.40;99.90;;;;;;5077983;28;20047;-80
2023/12/03 00:24:10;;;;;;;96.53;41.93;;;1.40;99.90;;;;;;5071339;28;20806;-83
2023/12/03 00:26:36;;;;;;;96.23;42.17;;;1.40;99.90;;;;;;5079593;28;20059;-80
2023/12/03 00:29:03;;;;;;;95.03;41.50;;;1.40;99.90;;;;;;5075199;28;20032;-81
2023/12/03 00:31:29;;;;;;;100.80;43.70;;;1.50;99.90;;;;;;5079955;28;20039;-82
2023/12/03 00:33:56;;;;;;;97.47;43.23;;;1.50;99.90;;;;;;5076202;28;20040;-80
2023/12/03 00:36:22;;;;;;;98.73;41.97;;;1.50;99.90;;;;;;5081257;28;20581;-81
2023/12/03 00:38:48;;;;;;;90.95;38.65;;;1.50;99.90;;;;;;5098665;28;20027;-80
2023/12/03 00:41:15;;;;;;;94.63;39.63;;;1.40;99.90;;;;;;5095466;28;20032;-79
2023/12/03 00:43:41;;;;;;;98.67;40.87;;;1.50;99.90;;;;;;5070117;28;20040;-85
2023/12/03 00:46:07;;;;;;;91.03;39.07;;;1.50;99.90;;;;;;5095982;28;20071;-82
2023/12/03 00:48:33;;;;;;;97.47;38.33;;;1.50;99.90;;;;;;5090469;28;20035;-82
2023/12/03 00:51:01;;;;;;;96.33;40.00;;;1.50;99.90;;;;;;5067220;28;20059;-79
2023/12/03 00:53:28;;;;;;;92.83;38.13;;;1.50;99.90;;;;;;5074530;28;20024;-81
2023/12/03 00:55:54;;;;;;;96.77;39.33;;;1.50;99.90;;;;;;5069580;28;20028;-82
2023/12/03 00:58:21;;;;;;;95.30;38.83;;;1.50;99.90;;;;;;5078872;28;20035;-81
2023/12/03 01:00:47;;;;;;;92.77;37.57;;;1.50;99.90;;;;;;5075782;28;20043;-78
2023/12/03 01:03:13;;;;;;;105.17;42.60;;;1.50;99.90;;;;;;5111066;27;20045;-83
2023/12/03 01:05:40;;;;;;;104.50;40.23;;;1.50;99.90;;;;;;5071395;28;20062;-83
2023/12/03 01:08:06;;;;;;;107.27;41.27;;;1.50;99.90;;;;;;5090403;28;20683;-81
2023/12/03 01:10:32;;;;;;;114.30;44.20;;;1.50;99.90;;;;;;5092159;28;20497;-77
2023/12/03 01:12:59;;;;;;;114.43;44.00;;;1.50;99.90;;;;;;5092480;28;20471;-83
2023/12/03 01:15:25;;;;;;;132.37;47.50;;;1.50;99.90;;;;;;5070158;28;20036;-82
2023/12/03 01:17:51;;;;;;;125.80;46.97;;;1.50;99.90;;;;;;5067671;28;20193;-78
2023/12/03 01:20:18;;;;;;;123.17;44.80;;;1.50;99.90;;;;;;5069942;28;20046;-80
2023/12/03 01:22:44;;;;;;;134.67;48.13;;;1.50;99.90;;;;;;5066579;28;20028;-84
2023/12/03 01:25:11;;;;;;;106.87;40.03;;;1.50;99.90;;;;;;5068904;28;20039;-77
2023/12/03 01:27:37;;;;;;;92.23;37.10;;;1.50;99.90;;;;;;5091764;28;20043;-78
2023/12/03 01:30:04;;;;;;;122.73;45.10;;;1.50;99.90;;;;;;5075311;28;20042;-80
2023/12/03 01:32:30;;;;;;;106.33;42.13;;;1.50;99.90;;;;;;5106104;27;20024;-81
2023/12/03 01:34:57;;;;;;;113.47;39.07;;;1.50;99.90;;;;;;5075424;28;20032;-84
2023/12/03 01:37:23;;;;;;;106.40;40.53;;;1.50;99.90;;;;;;5092293;28;20027;-84
2023/12/03 01:39:49;;;;;;;121.63;38.83;;;1.50;99.90;;;;;;5052874;28;20387;-85
2023/12/03 01:42:16;;;;;;;106.17;39.10;;;1.50;99.90;;;;;;5066244;28;20494;-83
2023/12/03 01:44:42;;;;;;;102.40;37.77;;;1.50;99.90;;;;;;5069302;28;20494;-83
2023/12/03 01:47:10;;;;;;;101.80;38.80;;;1.50;99.90;;;;;;5076325;28;20042;-79
2023/12/03 01:49:36;;;;;;;95.90;35.60;;;1.50;99.90;;;;;;5078463;28;20501;-79
2023/12/03 01:52:03;;;;;;;123.90;40.53;;;1.50;99.90;;;;;;5094520;28;20032;-79
2023/12/03 01:54:35;;;;;;;90.90;32.63;;;1.50;99.90;;;;;;5091759;28;20035;-84
2023/12/03 01:57:01;;;;;;;108.30;36.33;;;1.60;99.90;;;;;;5071899;28;20044;-83
2023/12/03 01:59:29;;;;;;;100.03;36.20;;;1.60;99.90;;;;;;5060784;28;20502;-78
2023/12/03 02:01:55;;;;;;;91.90;36.30;;;1.50;99.90;;;;;;5077485;28;20498;-81
2023/12/03 02:04:22;;;;;;;88.50;31.90;;;1.60;99.90;;;;;;5077041;28;20047;-83
2023/12/03 02:06:49;;;;;;;82.17;29.53;;;1.60;99.90;;;;;;5081445;28;20044;-79
2023/12/03 02:09:16;;;;;;;98.37;33.90;;;1.60;99.90;;;;;;5074783;28;20032;-83
2023/12/03 02:11:43;;;;;;;87.93;30.37;;;1.60;99.90;;;;;;5071222;28;20031;-82
2023/12/03 02:14:09;;;;;;;92.70;32.07;;;1.60;99.90;;;;;;5074623;28;20594;-78
2023/12/03 02:16:36;;;;;;;86.50;31.17;;;1.70;99.90;;;;;;5073729;28;20027;-81
2023/12/03 02:19:02;;;;;;;101.63;34.10;;;1.70;99.90;;;;;;5074835;28;20043;-83
2023/12/03 02:21:30;;;;;;;104.70;35.60;;;1.70;99.90;;;;;;5076633;28;20043;-83
2023/12/03 02:23:56;;;;;;;84.60;31.80;;;1.70;99.90;;;;;;5074503;28;20036;-81
2023/12/03 02:26:22;;;;;;;88.83;29.00;;;1.70;99.90;;;;;;5071464;28;20509;-82
2023/12/03 02:28:48;;;;;;;71.63;25.50;;;1.70;99.90;;;;;;5051686;28;20039;-74
2023/12/03 02:31:15;;;;;;;77.28;27.10;;;1.80;99.90;;;;;;5091272;28;20036;-84
2023/12/03 02:34:11;;;;;;;85.80;28.03;;;1.80;99.90;;;;;;5072174;28;20044;-83
2023/12/03 02:36:37;;;;;;;78.47;27.33;;;1.80;99.90;;;;;;5088376;28;20035;-83
2023/12/03 02:39:05;;;;;;;102.43;34.93;;;1.80;99.90;;;;;;5080639;28;20050;-82
2023/12/03 02:41:32;;;;;;;112.50;33.63;;;1.80;99.90;;;;;;5066369;28;20039;-80
2023/12/03 02:43:58;;;;;;;101.33;35.20;;;1.90;99.90;;;;;;5088999;28;20776;-81
2023/12/03 02:46:24;;;;;;;125.60;39.00;;;1.90;99.90;;;;;;5074544;28;20036;-79
2023/12/03 02:48:51;;;;;;;98.60;32.30;;;1.90;99.90;;;;;;5050140;28;20040;-81
2023/12/03 02:51:17;;;;;;;95.13;30.87;;;1.90;99.90;;;;;;5089098;28;20039;-84
2023/12/03 02:53:45;;;;;;;139.87;37.17;;;1.90;99.90;;;;;;5092085;28;20040;-79
2023/12/03 02:56:12;;;;;;;117.63;35.70;;;1.90;99.90;;;;;;5066637;28;20040;-83
2023/12/03 02:58:39;;;;;;;116.17;36.70;;;1.90;99.90;;;;;;5090871;28;20036;-77
2023/12/03 03:01:06;;;;;;;85.73;29.47;;;1.90;99.90;;;;;;5074436;28;20497;-83
2023/12/03 03:03:33;;;;;;;100.87;33.03;;;1.90;99.90;;;;;;5073988;28;20054;-80
2023/12/03 03:05:59;;;;;;;113.47;34.10;;;2.00;99.90;;;;;;5067409;28;20491;-82
2023/12/03 03:08:26;;;;;;;129.63;38.27;;;1.90;99.90;;;;;;5073341;28;20470;-84
2023/12/03 03:10:52;;;;;;;116.40;37.53;;;2.00;99.90;;;;;;5079135;28;20036;-81
2023/12/03 03:13:18;;;;;;;99.43;32.63;;;2.00;99.90;;;;;;5081735;28;20408;-81
2023/12/03 03:15:44;;;;;;;105.90;33.53;;;2.00;99.90;;;;;;5065268;27;20028;-77
2023/12/03 03:18:11;;;;;;;112.77;35.87;;;2.00;99.90;;;;;;5081958;28;20039;-81
2023/12/03 03:20:37;;;;;;;96.40;30.70;;;2.00;99.90;;;;;;5078114;28;20024;-82
2023/12/03 03:23:03;;;;;;;104.50;34.57;;;2.10;99.90;;;;;;5070094;28;20027;-80
2023/12/03 03:25:30;;;;;;;102.03;33.80;;;2.10;99.90;;;;;;5081433;28;20031;-75
2023/12/03 03:27:56;;;;;;;85.50;28.53;;;2.10;99.90;;;;;;5071905;28;20336;-82
2023/12/03 03:30:22;;;;;;;95.90;31.47;;;2.10;99.90;;;;;;5081385;28;20026;-76
2023/12/03 03:32:49;;;;;;;107.43;36.47;;;2.10;99.90;;;;;;5078843;28;20031;-82
2023/12/03 03:35:15;;;;;;;113.87;37.33;;;2.10;99.90;;;;;;5076750;28;20459;-82
2023/12/03 03:37:41;;;;;;;109.78;39.95;;;2.20;99.90;;;;;;5068130;28;20596;-79
2023/12/03 03:40:08;;;;;;;125.27;42.00;;;2.10;99.90;;;;;;5078781;28;20039;-81
2023/12/03 03:42:34;;;;;;;114.80;41.60;;;2.10;99.90;;;;;;5078715;28;20379;-78
2023/12/03 03:45:01;;;;;;;122.83;43.07;;;2.20;99.90;;;;;;5077821;28;20285;-79
2023/12/03 03:47:27;;;;;;;122.90;43.37;;;2.20;99.90;;;;;;5070428;28;20051;-84
2023/12/03 03:49:54;;;;;;;127.67;46.27;;;2.20;99.90;;;;;;5084079;28;20470;-81
2023/12/03 03:52:20;;;;;;;114.30;42.27;;;2.20;99.90;;;;;;5093006;27;20379;-79
2023/12/03 03:54:46;;;;;;;110.90;43.30;;;2.20;99.90;;;;;;5077311;28;20398;-82
2023/12/03 03:57:13;;;;;;;108.43;42.60;;;2.20;99.90;;;;;;5081918;28;20035;-79
2023/12/03 03:59:43;;;;;;;104.95;41.00;;;2.20;99.90;;;;;;5070256;28;20066;-81
2023/12/03 04:02:09;;;;;;;97.20;41.50;;;2.20;99.90;;;;;;5076728;28;20489;-81
2023/12/03 04:04:35;;;;;;;106.80;43.70;;;2.20;99.90;;;;;;5093953;28;20020;-79
2023/12/03 04:07:03;;;;;;;89.23;39.47;;;2.20;99.90;;;;;;5078095;28;20043;-80
2023/12/03 04:09:30;;;;;;;102.47;43.23;;;2.20;99.90;;;;;;5053763;28;20034;-81
2023/12/03 04:11:56;;;;;;;92.37;38.53;;;2.30;99.90;;;;;;5078169;28;20031;-75
2023/12/03 04:14:23;;;;;;;98.20;41.77;;;2.30;99.90;;;;;;5076858;28;20059;-80
2023/12/03 04:16:49;;;;;;;107.73;46.23;;;2.30;99.90;;;;;;5056346;28;20042;-82
2023/12/03 04:19:15;;;;;;;119.50;51.67;;;2.30;99.90;;;;;;5077850;28;20054;-84
2023/12/03 04:21:42;;;;;;;97.70;45.38;;;2.30;99.90;;;;;;5070941;28;20035;-78
2023/12/03 04:24:08;;;;;;;106.60;48.33;;;2.30;99.90;;;;;;5061751;28;20036;-81
2023/12/03 04:26:35;;;;;;;96.68;44.67;;;2.30;99.90;;;;;;5080087;28;20044;-82
2023/12/03 04:29:01;;;;;;;97.47;46.17;;;2.30;99.90;;;;;;5068919;28;20036;-82
2023/12/03 04:31:27;;;;;;;90.30;45.40;;;2.30;99.90;;;;;;5081663;28;20089;-77
2023/12/03 04:33:55;;;;;;;98.27;46.30;;;2.30;99.90;;;;;;5075240;28;20044;-81
2023/12/03 04:36:23;;;;;;;90.77;43.37;;;2.30;99.90;;;;;;5097394;28;20051;-84
2023/12/03 04:38:53;;;;;;;100.57;47.17;;;2.30;99.90;;;;;;5099498;28;20038;-79
2023/12/03 04:41:19;;;;;;;97.30;47.35;;;2.30;99.90;;;;;;5082233;28;20031;-81
2023/12/03 04:43:46;;;;;;;96.10;46.60;;;2.30;99.90;;;;;;5051130;28;20055;-81
2023/12/03 04:46:13;;;;;;;86.93;43.83;;;2.30;99.90;;;;;;5075911;28;20048;-80
2023/12/03 04:48:40;;;;;;;83.20;41.53;;;2.30;99.90;;;;;;5107993;27;20475;-80
2023/12/03 04:51:07;;;;;;;84.05;42.25;;;2.30;99.90;;;;;;5077506;28;20035;-86
2023/12/03 04:53:33;;;;;;;88.07;43.50;;;2.30;99.90;;;;;;5077132;28;20426;-77
2023/12/03 04:56:00;;;;;;;81.18;39.38;;;2.30;99.90;;;;;;5109212;27;20062;-79
2023/12/03 04:58:26;;;;;;;80.23;39.13;;;2.20;99.90;;;;;;5109027;27;20028;-82
2023/12/03 05:00:55;;;;;;;80.83;40.70;;;2.20;99.90;;;;;;5092665;28;20386;-76
2023/12/03 05:03:21;;;;;;;84.00;41.63;;;2.20;99.90;;;;;;5069600;28;20059;-84
2023/12/03 05:05:48;;;;;;;91.80;45.37;;;2.20;99.90;;;;;;5064043;28;20070;-81
2023/12/03 05:08:14;;;;;;;96.15;45.63;;;2.20;99.90;;;;;;5089159;28;20467;-82
2023/12/03 05:10:41;;;;;;;87.50;43.80;;;2.20;99.90;;;;;;5078658;28;20540;-83
2023/12/03 05:13:07;;;;;;;78.13;43.93;;;2.20;99.90;;;;;;5112146;27;20058;-82
2023/12/03 05:15:34;;;;;;;79.27;41.70;;;2.20;99.90;;;;;;5076918;28;20047;-78
2023/12/03 05:18:00;;;;;;;76.33;39.50;;;2.20;99.90;;;;;;5106503;27;20032;-81
2023/12/03 05:20:26;;;;;;;75.75;38.47;;;2.20;99.90;;;;;;5107418;27;20031;-79
2023/12/03 05:22:53;;;;;;;68.63;36.97;;;2.20;99.90;;;;;;5067345;28;20043;-74
2023/12/03 05:25:19;;;;;;;80.13;39.27;;;2.20;99.90;;;;;;5075987;28;20037;-80
2023/12/03 05:27:46;;;;;;;73.90;38.90;;;2.20;99.90;;;;;;5107879;27;20050;-79
2023/12/03 05:30:14;;;;;;;74.13;38.27;;;2.10;99.90;;;;;;5095051;28;20422;-77
2023/12/03 05:32:41;;;;;;;73.43;36.83;;;2.10;99.90;;;;;;5090644;28;20039;-82
2023/12/03 05:35:08;;;;;;;72.67;36.97;;;2.10;99.90;;;;;;5072011;28;20053;-79
2023/12/03 05:37:34;;;;;;;72.43;36.90;;;2.10;99.90;;;;;;5070056;28;20036;-82
2023/12/03 05:40:01;;;;;;;66.47;34.83;;;2.00;99.90;;;;;;5066481;28;20032;-82
2023/12/03 05:42:28;;;;;;;61.30;32.63;;;2.00;99.90;;;;;;5092253;28;20478;-86
2023/12/03 05:44:54;;;;;;;71.47;37.63;;;1.90;99.90;;;;;;5070668;28;20039;-83
2023/12/03 05:47:20;;;;;;;61.27;33.47;;;1.80;99.90;;;;;;5110123;27;20046;-79
2023/12/03 05:49:47;;;;;;;79.13;40.20;;;1.70;99.90;;;;;;5075812;28;20420;-80
2023/12/03 05:52:14;;;;;;;72.57;36.80;;;1.70;99.90;;;;;;5092448;28;20044;-79
2023/12/03 05:54:44;;;;;;;67.40;32.33;;;1.60;99.90;;;;;;5092781;28;20410;-79
2023/12/03 05:57:10;;;;;;;61.27;31.87;;;1.60;99.90;;;;;;5092503;28;20039;-82
2023/12/03 05:59:37;;;;;;;58.83;31.23;;;1.50;99.90;;;;;;5072932;28;20039;-83
2023/12/03 06:02:04;;;;;;;54.67;29.10;;;1.50;99.90;;;;;;5094503;28;20039;-82
2023/12/03 06:04:31;;;;;;;60.97;31.40;;;1.40;99.90;;;;;;5066975;28;20039;-81
2023/12/03 06:06:57;;;;;;;53.17;28.60;;;1.30;99.90;;;;;;5077948;28;20051;-80
2023/12/03 06:09:24;;;;;;;50.57;28.40;;;1.40;99.90;;;;;;5107455;27;20487;-82
2023/12/03 06:11:50;;;;;;;53.20;27.07;;;1.40;99.90;;;;;;5068223;28;20514;-80
2023/12/03 06:14:17;;;;;;;69.93;34.97;;;1.40;99.90;;;;;;5076640;28;20054;-85
2023/12/03 06:16:43;;;;;;;65.23;36.03;;;1.40;99.90;;;;;;5103411;28;20042;-81
2023/12/03 06:19:09;;;;;;;69.07;34.97;;;1.40;99.90;;;;;;5072711;28;20054;-84
2023/12/03 06:21:36;;;;;;;75.40;35.23;;;1.50;99.90;;;;;;5077101;28;20032;-82
2023/12/03 06:24:02;;;;;;;66.30;35.43;;;1.50;99.90;;;;;;5071811;28;20043;-83
2023/12/03 06:26:28;;;;;;;76.33;38.17;;;1.50;99.90;;;;;;5073064;28;20040;-84
2023/12/03 06:28:55;;;;;;;72.33;37.07;;;1.50;99.90;;;;;;5067228;28;20036;-81
2023/12/03 06:31:21;;;;;;;74.20;36.43;;;1.50;99.90;;;;;;5077637;28;20475;-82
2023/12/03 06:33:47;;;;;;;75.87;38.07;;;1.50;99.90;;;;;;5073905;28;20028;-81
2023/12/03 06:36:14;;;;;;;73.23;35.80;;;1.50;99.90;;;;;;5079840;28;20032;-84
2023/12/03 06:38:40;;;;;;;71.17;34.23;;;1.50;99.90;;;;;;5078555;28;20079;-83
2023/12/03 06:41:06;;;;;;;70.43;35.50;;;1.50;99.90;;;;;;5082034;28;20398;-75
2023/12/03 06:43:33;;;;;;;73.63;35.67;;;1.50;99.90;;;;;;5067977;28;20394;-79
2023/12/03 06:45:59;;;;;;;82.50;38.03;;;1.50;99.90;;;;;;5094130;28;20040;-78
2023/12/03 06:48:25;;;;;;;74.67;36.10;;;1.50;99.90;;;;;;5080790;28;20032;-85
2023/12/03 06:50:55;;;;;;;77.63;36.13;;;1.50;99.90;;;;;;5055169;28;20051;-80
2023/12/03 06:53:21;;;;;;;75.03;36.67;;;1.50;99.90;;;;;;5094688;28;20024;-81
2023/12/03 06:55:47;;;;;;;71.80;35.20;;;1.50;99.90;;;;;;5094534;28;20036;-83
2023/12/03 06:58:14;;;;;;;82.23;37.13;;;1.50;99.90;;;;;;5082231;28;20040;-80
2023/12/03 07:00:40;;;;;;;73.60;35.80;;;1.50;99.90;;;;;;5093909;28;20032;-79
2023/12/03 07:03:06;;;;;;;71.13;34.22;;;1.50;99.90;;;;;;5095691;28;20035;-81
2023/12/03 07:05:33;;;;;;;77.37;36.97;;;1.50;99.90;;;;;;5083516;28;20039;-83
2023/12/03 07:07:59;;;;;;;79.57;38.30;;;1.40;99.90;;;;;;5070942;28;20043;-82
2023/12/03 07:10:25;;;;;;;83.80;38.77;;;1.40;99.90;;;;;;5053053;28;20058;-85
2023/12/03 07:12:52;;;;;;;81.00;37.33;;;1.30;99.90;;;;;;5071727;28;20043;-82
2023/12/03 07:15:18;;;;;;;78.90;37.43;;;1.20;99.90;;;;;;5082452;28;20054;-86
2023/12/03 07:17:45;;;;;;;74.23;34.53;;;1.00;99.90;;;;;;5093876;28;20039;-76
2023/12/03 07:20:11;;;;;;;66.27;31.73;;;0.90;99.90;;;;;;5073804;28;20027;-82
2023/12/03 07:22:39;;;;;;;65.85;32.38;;;0.80;99.90;;;;;;5078147;28;20047;-83
2023/12/03 07:25:06;;;;;;;71.10;33.83;;;0.70;99.90;;;;;;5075381;28;20391;-82
2023/12/03 07:27:32;;;;;;;73.20;33.17;;;0.70;99.90;;;;;;5097031;28;20036;-82
2023/12/03 07:29:58;;;;;;;78.77;37.93;;;0.60;99.90;;;;;;5070675;28;20051;-84
2023/12/03 07:32:25;;;;;;;91.97;42.50;;;0.50;99.90;;;;;;5094539;28;20441;-85
2023/12/03 07:34:52;;;;;;;84.77;38.67;;;0.50;99.90;;;;;;5093063;28;20032;-82
2023/12/03 07:37:19;;;;;;;83.60;37.57;;;0.40;99.90;;;;;;5111354;27;20039;-78
2023/12/03 07:39:45;;;;;;;80.00;37.77;;;0.40;99.90;;;;;;5058402;28;20492;-83
2023/12/03 07:42:11;;;;;;;81.23;37.50;;;0.40;99.90;;;;;;5086782;28;20114;-81
2023/12/03 07:44:38;;;;;;;80.83;38.43;;;0.40;99.90;;;;;;5087952;28;20039;-85
2023/12/03 07:47:04;;;;;;;85.67;36.80;;;0.30;99.90;;;;;;5090107;28;20052;-85
2023/12/03 07:49:30;;;;;;;76.67;34.60;;;0.30;99.90;;;;;;5073544;28;20031;-86
2023/12/03 07:51:57;;;;;;;65.20;32.63;;;0.20;99.90;;;;;;5081286;28;20497;-79
2023/12/03 07:54:23;;;;;;;65.43;29.40;;;0.20;99.90;;;;;;5092247;28;20402;-81
2023/12/03 07:56:49;;;;;;;69.63;32.50;;;0.20;99.90;;;;;;5070794;28;20046;-84
2023/12/03 07:59:16;;;;;;;79.37;34.60;;;0.10;99.90;;;;;;5069790;28;20028;-84
2023/12/03 08:01:42;;;;;;;69.47;30.70;;;0.10;99.90;;;;;;5071333;28;20457;-81
2023/12/03 08:04:08;;;;;;;68.07;30.23;;;0.10;99.90;;;;;;5080000;28;20032;-83
2023/12/03 08:06:34;;;;;;;60.63;28.50;;;0.10;99.90;;;;;;5098065;27;20482;-84
2023/12/03 08:09:01;;;;;;;64.00;29.57;;;0.10;99.90;;;;;;5078690;28;20047;-84
2023/12/03 08:11:27;;;;;;;69.13;32.17;;;0.20;99.90;;;;;;5099287;28;20458;-81
2023/12/03 08:13:57;;;;;;;65.03;26.87;;;0.20;99.90;;;;;;5083977;28;20324;-82
2023/12/03 08:16:23;;;;;;;59.07;26.37;;;0.20;99.90;;;;;;5077127;28;20030;-78
2023/12/03 08:18:49;;;;;;;69.57;29.80;;;0.20;99.90;;;;;;5075083;28;20239;-82
2023/12/03 08:21:16;;;;;;;75.23;31.20;;;0.20;99.90;;;;;;5083148;28;20036;-77
2023/12/03 08:23:42;;;;;;;80.20;34.00;;;0.20;99.90;;;;;;5082086;28;20039;-81
2023/12/03 08:26:09;;;;;;;71.80;31.83;;;0.30;99.90;;;;;;5094574;28;20062;-83
2023/12/03 08:28:35;;;;;;;72.70;31.70;;;0.30;99.90;;;;;;5056670;28;20498;-84
2023/12/03 08:31:02;;;;;;;68.53;30.43;;;0.30;99.90;;;;;;5053574;28;20044;-79
2023/12/03 08:33:28;;;;;;;62.87;29.17;;;0.30;99.90;;;;;;5063250;28;20043;-83
2023/12/03 08:35:56;;;;;;;69.60;30.90;;;0.30;99.90;;;;;;5077528;28;20043;-78
2023/12/03 08:38:22;;;;;;;69.63;31.17;;;0.40;99.90;;;;;;5075859;28;20518;-82
2023/12/03 08:40:49;;;;;;;69.07;29.10;;;0.40;99.90;;;;;;5081437;28;20394;-81
2023/12/03 08:43:15;;;;;;;63.67;27.57;;;0.40;99.90;;;;;;5092591;27;20431;-80
2023/12/03 08:45:42;;;;;;;62.77;29.63;;;0.50;99.90;;;;;;5079461;28;20046;-84
2023/12/03 08:48:08;;;;;;;84.10;35.47;;;0.50;99.90;;;;;;5068623;27;20048;-81
2023/12/03 08:50:35;;;;;;;70.87;32.27;;;0.60;99.90;;;;;;5079340;28;20036;-77
2023/12/03 08:53:01;;;;;;;74.10;32.30;;;0.60;99.90;;;;;;5082423;28;20051;-78
2023/12/03 08:55:28;;;;;;;72.07;32.77;;;0.60;99.90;;;;;;5098247;27;20031;-81
2023/12/03 08:57:55;;;;;;;73.60;33.00;;;0.70;99.90;;;;;;5100563;27;20035;-79
2023/12/03 09:00:22;;;;;;;81.37;34.20;;;0.70;99.90;;;;;;5072756;28;20039;-78
2023/12/03 09:02:48;;;;;;;77.07;33.03;;;0.70;99.90;;;;;;5082943;27;20541;-81
2023/12/03 09:05:14;;;;;;;81.07;34.93;;;0.80;99.90;;;;;;5083917;28;20390;-79
2023/12/03 09:07:41;;;;;;;72.10;32.67;;;0.80;99.90;;;;;;5081387;28;20411;-80
2023/12/03 09:10:08;;;;;;;78.57;34.20;;;0.80;99.90;;;;;;5080337;28;20039;-81
2023/12/03 09:12:34;;;;;;;65.77;30.10;;;0.90;99.90;;;;;;5070573;27;20497;-80
2023/12/03 09:15:00;;;;;;;72.60;33.27;;;0.90;99.90;;;;;;5074250;28;20039;-82
2023/12/03 09:17:27;;;;;;;73.50;30.50;;;1.00;99.90;;;;;;5076144;28;20035;-80
2023/12/03 09:19:53;;;;;;;65.47;28.67;;;1.10;99.90;;;;;;5076719;28;20043;-82
2023/12/03 09:22:20;;;;;;;70.40;32.90;;;1.10;99.90;;;;;;5076677;28;20044;-80
2023/12/03 09:24:47;;;;;;;75.17;34.07;;;1.20;99.90;;;;;;5093651;28;20031;-80
2023/12/03 09:27:13;;;;;;;71.80;32.93;;;1.30;99.90;;;;;;5071992;27;20040;-82
2023/12/03 09:29:40;;;;;;;80.77;35.57;;;1.30;99.90;;;;;;5081651;28;20505;-80
2023/12/03 09:32:06;;;;;;;65.00;31.90;;;1.40;99.90;;;;;;5093793;27;20039;-82
2023/12/03 09:34:32;;;;;;;68.00;29.87;;;1.40;99.90;;;;;;5079760;28;20035;-78
2023/12/03 09:36:59;;;;;;;67.47;32.37;;;1.50;99.90;;;;;;5090835;28;20032;-82
2023/12/03 09:39:25;;;;;;;73.53;32.73;;;1.60;99.90;;;;;;5080725;28;20038;-83
2023/12/03 09:41:54;;;;;;;70.77;32.47;;;1.70;99.90;;;;;;5073070;28;20039;-82
2023/12/03 09:44:27;;;;;;;59.43;29.60;;;1.80;99.90;;;;;;5084693;28;20031;-83
2023/12/03 09:46:54;;;;;;;;;;;1.90;99.90;;;;;;5094741;28;20039;-79
2023/12/03 09:49:24;;;;;;;44.92;23.60;;;2.10;99.90;;;;;;5090393;28;20430;-79
2023/12/03 09:51:51;;;;;;;47.30;25.00;;;2.40;99.90;;;;;;5074965;28;20560;-85
2023/12/03 09:54:19;;;;;;;47.45;25.58;;;2.70;99.90;;;;;;5073673;28;20494;-83
2023/12/03 09:56:47;;;;;;;37.30;22.00;;;2.90;99.90;;;;;;5078522;28;20043;-79
2023/12/03 09:59:14;;;;;;;37.50;21.23;;;3.20;99.90;;;;;;5091625;28;20036;-81
2023/12/03 10:01:41;;;;;;;34.42;20.38;;;3.40;99.90;;;;;;5082512;28;20413;-81
2023/12/03 10:04:08;;;;;;;30.52;19.17;;;3.70;99.90;;;;;;5059462;28;20028;-79
2023/12/03 10:06:46;;;;;;;29.08;17.67;;;4.00;99.90;;;;;;5089800;28;20038;-80
2023/12/03 10:09:13;;;;;;;33.70;19.98;;;4.20;99.90;;;;;;5073824;28;20055;-79
2023/12/03 10:11:40;;;;;;;33.45;20.70;;;4.40;99.90;;;;;;5075287;28;20087;-80
2023/12/03 10:14:10;;;;;;;38.15;21.90;;;4.40;99.90;;;;;;5087929;28;20039;-78
2023/12/03 10:16:37;;;;;;;30.58;17.50;;;4.40;99.90;;;;;;5095954;28;20031;-77
2023/12/03 10:19:03;;;;;;;33.00;18.75;;;4.40;99.90;;;;;;5095802;28;20039;-81
2023/12/03 10:21:29;;;;;;;33.95;19.83;;;4.20;99.90;;;;;;5089635;28;20032;-81
2023/12/03 10:24:03;;;;;;;36.00;22.50;;;4.10;99.90;;;;;;5095126;28;20043;-82
2023/12/03 10:26:29;;;;;;;34.28;20.77;;;4.00;99.90;;;;;;5094923;28;20039;-79
2023/12/03 10:28:56;;;;;;;36.28;20.67;;;3.80;99.90;;;;;;5067026;28;20048;-82
2023/12/03 10:31:23;;;;;;;35.85;21.42;;;3.70;99.90;;;;;;5056793;28;20039;-80
2023/12/03 10:33:50;;;;;;;41.15;23.67;;;3.60;99.90;;;;;;5074124;28;20058;-82
2023/12/03 10:36:17;;;;;;;41.60;24.65;;;3.50;99.90;;;;;;5098543;28;20035;-78
2023/12/03 10:38:43;;;;;;;40.15;22.65;;;3.40;99.90;;;;;;5084864;28;20039;-78
2023/12/03 10:41:13;;;;;;;34.42;20.30;;;3.20;99.90;;;;;;5094700;28;20043;-78
2023/12/03 10:43:41;;;;;;;43.15;23.40;;;3.10;99.90;;;;;;5083685;28;20050;-79
2023/12/03 10:46:09;;;;;;;41.13;22.52;;;3.10;99.90;;;;;;5080528;28;20028;-80
2023/12/03 10:48:35;;;;;;;41.90;22.80;;;3.00;99.90;;;;;;5074436;28;20044;-80
2023/12/03 10:51:09;;;;;;;40.13;22.40;;;2.90;99.90;;;;;;5085068;28;20473;-81
2023/12/03 10:53:37;;;;;;;43.63;23.92;;;2.90;99.90;;;;;;5077334;28;20043;-80
2023/12/03 10:56:06;;;;;;;42.42;21.15;;;2.90;99.90;;;;;;5095489;28;20016;-79
2023/12/03 10:58:39;;;;;;;42.85;21.98;;;2.90;99.90;;;;;;5092832;28;20071;-81
2023/12/03 11:01:19;;;;;;;45.83;22.70;;;2.90;99.90;;;;;;5079572;28;20039;-79
2023/12/03 11:03:58;;;;;;;42.08;22.02;;;2.90;99.90;;;;;;5079991;28;20039;-75
2023/12/03 11:06:25;;;;;;;41.03;23.02;;;2.80;99.90;;;;;;5087205;27;20510;-80
2023/12/03 11:08:55;;;;;;;42.88;22.48;;;2.80;99.90;;;;;;5064588;28;20482;-75
2023/12/03 11:11:22;;;;;;;42.28;21.95;;;2.70;99.90;;;;;;5085267;28;20047;-81
2023/12/03 11:13:51;;;;;;;42.45;23.63;;;2.70;99.90;;;;;;5078260;28;20146;-81
2023/12/03 11:16:19;;;;;;;40.72;22.73;;;2.70;99.90;;;;;;5112457;27;20071;-81
2023/12/03 11:19:06;;;;;;;41.42;22.73;;;2.70;99.90;;;;;;5071315;28;20039;-79
2023/12/03 11:22:07;;;;;;;40.05;22.00;;;2.70;99.90;;;;;;5081982;28;20032;-75
2023/12/03 11:24:47;;;;;;;35.50;20.60;;;2.70;99.90;;;;;;5088725;28;20157;-77
2023/12/03 11:27:13;;;;;;;38.47;20.70;;;2.70;99.90;;;;;;5057888;28;20520;-76
2023/12/03 11:29:56;;;;;;;36.88;21.10;;;2.70;99.90;;;;;;5079273;28;20040;-80
2023/12/03 11:32:25;;;;;;;36.35;18.90;;;2.70;99.90;;;;;;5077902;28;20039;-81
2023/12/03 11:35:15;;;;;;;33.13;18.80;;;2.70;99.90;;;;;;5072690;28;20063;-82
2023/12/03 11:37:43;;;;;;;32.22;19.02;;;2.80;99.90;;;;;;5045389;28;20048;-74
2023/12/03 11:40:13;;;;;;;36.50;19.13;;;2.80;99.90;;;;;;5099907;28;20117;-75
2023/12/03 11:42:50;;;;;;;34.78;18.80;;;2.80;99.90;;;;;;5085766;28;20043;-78
2023/12/03 11:45:21;;;;;;;31.92;17.58;;;2.90;99.90;;;;;;5093566;28;20039;-81
2023/12/03 11:48:10;;;;;;;36.45;19.85;;;3.00;99.90;;;;;;5091575;28;20036;-75
2023/12/03 11:50:37;;;;;;;31.60;18.33;;;3.00;99.90;;;;;;5088144;28;20042;-79
2023/12/03 11:53:08;;;;;;;33.72;18.02;;;3.10;99.90;;;;;;5109534;27;20529;-81
2023/12/03 11:55:36;;;;;;;30.35;18.13;;;3.20;99.90;;;;;;5079949;28;20032;-83
2023/12/03 11:58:04;;;;;;;28.25;16.23;;;3.30;99.90;;;;;;5074777;28;20032;-80
2023/12/03 12:00:34;;;;;;;32.70;17.88;;;3.30;99.90;;;;;;5074273;28;20372;-78
2023/12/03 12:03:05;;;;;;;31.83;18.17;;;3.40;99.90;;;;;;5093793;28;20048;-77
2023/12/03 12:05:32;;;;;;;29.25;16.55;;;3.40;99.90;;;;;;5054989;28;20050;-81
2023/12/03 12:08:03;;;;;;;30.00;16.85;;;3.40;99.90;;;;;;5076012;28;20399;-82
2023/12/03 12:10:34;;;;;;;29.52;17.23;;;3.50;99.90;;;;;;5074286;28;20106;-79
2023/12/03 12:13:04;;;;;;;29.55;17.83;;;3.40;99.90;;;;;;5088459;27;20506;-80
2023/12/03 12:15:30;;;;;;;29.92;17.05;;;3.40;99.90;;;;;;5052442;28;20023;-82
2023/12/03 12:17:57;;;;;;;31.83;18.17;;;3.40;99.90;;;;;;5070472;28;20054;-76
2023/12/03 12:20:23;;;;;;;29.42;17.52;;;3.40;99.90;;;;;;5078622;28;20040;-76
2023/12/03 12:22:51;;;;;;;25.88;16.35;;;3.30;99.90;;;;;;5077402;28;20074;-77
2023/12/03 12:25:19;;;;;;;25.60;15.40;;;3.30;99.90;;;;;;5078498;28;20062;-78
2023/12/03 12:27:47;;;;;;;28.02;16.67;;;3.30;99.90;;;;;;5092212;28;20047;-74
2023/12/03 12:30:15;;;;;;;29.33;16.17;;;3.40;99.90;;;;;;5075312;28;20032;-79
2023/12/03 12:32:41;;;;;;;27.15;15.63;;;3.40;99.90;;;;;;5074573;28;20041;-77
2023/12/03 12:35:10;;;;;;;27.17;15.27;;;3.50;99.90;;;;;;5068129;28;20036;-80
2023/12/03 12:37:37;;;;;;;26.35;15.13;;;3.50;99.90;;;;;;5110458;27;20039;-81